sensor_id;sensor_type;location;lat;lon;timestamp;temperature;humidity
24426;DHT22;12611;44.446;26.000;2024-01-25T00:00:57;2.00;93.60
24426;DHT22;12611;44.446;26.000;2024-01-25T00:03:25;2.00;93.40
24426;DHT22;12611;44.446;26.000;2024-01-25T00:05:54;2.10;93.30
24426;DHT22;12611;44.446;26.000;2024-01-25T00:08:22;2.00;93.20
24426;DHT22;12611;44.446;26.000;2024-01-25T00:10:51;2.10;93.20
24426;DHT22;12611;44.446;26.000;2024-01-25T00:13:21;2.10;93.30
24426;DHT22;12611;44.446;26.000;2024-01-25T00:15:49;2.10;93.20
24426;DHT22;12611;44.446;26.000;2024-01-25T00:18:18;2.10;93.20
24426;DHT22;12611;44.446;26.000;2024-01-25T00:20:46;2.20;93.10
24426;DHT22;12611;44.446;26.000;2024-01-25T00:23:15;2.30;93.00
24426;DHT22;12611;44.446;26.000;2024-01-25T00:25:44;2.30;92.90
24426;DHT22;12611;44.446;26.000;2024-01-25T00:28:13;2.40;92.80
24426;DHT22;12611;44.446;26.000;2024-01-25T00:30:43;2.40;92.70
24426;DHT22;12611;44.446;26.000;2024-01-25T00:33:11;2.40;92.50
24426;DHT22;12611;44.446;26.000;2024-01-25T00:35:40;2.40;92.10
24426;DHT22;12611;44.446;26.000;2024-01-25T00:38:10;2.40;91.80
24426;DHT22;12611;44.446;26.000;2024-01-25T00:40:40;2.40;91.80
24426;DHT22;12611;44.446;26.000;2024-01-25T00:43:09;2.40;91.80
24426;DHT22;12611;44.446;26.000;2024-01-25T00:45:38;2.40;91.60
24426;DHT22;12611;44.446;26.000;2024-01-25T00:48:10;2.40;91.50
24426;DHT22;12611;44.446;26.000;2024-01-25T00:50:39;2.40;91.50
24426;DHT22;12611;44.446;26.000;2024-01-25T00:53:08;2.40;91.50
24426;DHT22;12611;44.446;26.000;2024-01-25T00:55:37;2.40;91.30
24426;DHT22;12611;44.446;26.000;2024-01-25T00:58:08;2.40;91.30
24426;DHT22;12611;44.446;26.000;2024-01-25T01:00:37;2.40;91.30
24426;DHT22;12611;44.446;26.000;2024-01-25T01:03:08;2.40;91.20
24426;DHT22;12611;44.446;26.000;2024-01-25T01:05:38;2.40;91.20
24426;DHT22;12611;44.446;26.000;2024-01-25T01:08:08;2.40;91.10
24426;DHT22;12611;44.446;26.000;2024-01-25T01:10:37;2.40;91.00
24426;DHT22;12611;44.446;26.000;2024-01-25T01:13:05;2.30;91.00
24426;DHT22;12611;44.446;26.000;2024-01-25T01:15:34;2.40;91.10
24426;DHT22;12611;44.446;26.000;2024-01-25T01:18:03;2.30;90.90
24426;DHT22;12611;44.446;26.000;2024-01-25T01:21:15;2.30;90.90
24426;DHT22;12611;44.446;26.000;2024-01-25T01:24:11;2.20;90.90
24426;DHT22;12611;44.446;26.000;2024-01-25T01:26:39;2.20;90.90
24426;DHT22;12611;44.446;26.000;2024-01-25T01:29:09;2.20;91.00
24426;DHT22;12611;44.446;26.000;2024-01-25T01:31:51;2.10;91.00
24426;DHT22;12611;44.446;26.000;2024-01-25T01:34:19;2.10;91.00
24426;DHT22;12611;44.446;26.000;2024-01-25T01:36:50;2.10;91.00
24426;DHT22;12611;44.446;26.000;2024-01-25T01:39:18;2.10;91.00
24426;DHT22;12611;44.446;26.000;2024-01-25T01:41:47;2.10;91.10
24426;DHT22;12611;44.446;26.000;2024-01-25T01:44:17;2.10;91.10
24426;DHT22;12611;44.446;26.000;2024-01-25T01:46:45;2.10;91.30
24426;DHT22;12611;44.446;26.000;2024-01-25T01:49:14;2.10;91.30
24426;DHT22;12611;44.446;26.000;2024-01-25T01:51:44;2.10;91.20
24426;DHT22;12611;44.446;26.000;2024-01-25T01:54:14;2.00;91.20
24426;DHT22;12611;44.446;26.000;2024-01-25T01:56:43;2.00;91.30
24426;DHT22;12611;44.446;26.000;2024-01-25T01:59:12;2.00;91.40
24426;DHT22;12611;44.446;26.000;2024-01-25T02:01:41;2.10;91.50
24426;DHT22;12611;44.446;26.000;2024-01-25T02:04:10;2.10;91.50
24426;DHT22;12611;44.446;26.000;2024-01-25T02:06:39;2.10;91.60
24426;DHT22;12611;44.446;26.000;2024-01-25T02:09:08;2.20;91.80
24426;DHT22;12611;44.446;26.000;2024-01-25T02:11:38;2.30;91.70
24426;DHT22;12611;44.446;26.000;2024-01-25T02:14:06;2.30;91.70
24426;DHT22;12611;44.446;26.000;2024-01-25T02:16:37;2.40;91.60
24426;DHT22;12611;44.446;26.000;2024-01-25T02:19:06;2.40;91.60
24426;DHT22;12611;44.446;26.000;2024-01-25T02:21:35;2.50;91.40
24426;DHT22;12611;44.446;26.000;2024-01-25T02:24:06;2.40;91.40
24426;DHT22;12611;44.446;26.000;2024-01-25T02:26:35;2.50;91.30
24426;DHT22;12611;44.446;26.000;2024-01-25T02:29:04;2.50;91.40
24426;DHT22;12611;44.446;26.000;2024-01-25T02:31:34;2.60;91.30
24426;DHT22;12611;44.446;26.000;2024-01-25T02:34:03;2.60;91.30
24426;DHT22;12611;44.446;26.000;2024-01-25T02:36:31;2.70;91.60
24426;DHT22;12611;44.446;26.000;2024-01-25T02:39:00;2.70;91.10
24426;DHT22;12611;44.446;26.000;2024-01-25T02:41:30;2.70;90.90
24426;DHT22;12611;44.446;26.000;2024-01-25T02:44:00;2.70;90.80
24426;DHT22;12611;44.446;26.000;2024-01-25T02:46:28;2.70;90.80
24426;DHT22;12611;44.446;26.000;2024-01-25T02:49:10;2.70;90.70
24426;DHT22;12611;44.446;26.000;2024-01-25T02:51:39;2.70;90.70
24426;DHT22;12611;44.446;26.000;2024-01-25T02:54:08;2.70;90.70
24426;DHT22;12611;44.446;26.000;2024-01-25T02:56:38;2.70;90.70
24426;DHT22;12611;44.446;26.000;2024-01-25T02:59:06;2.70;90.70
24426;DHT22;12611;44.446;26.000;2024-01-25T03:01:39;2.70;90.70
24426;DHT22;12611;44.446;26.000;2024-01-25T03:04:08;2.70;90.70
24426;DHT22;12611;44.446;26.000;2024-01-25T03:06:37;2.80;90.70
24426;DHT22;12611;44.446;26.000;2024-01-25T03:09:33;2.80;90.50
24426;DHT22;12611;44.446;26.000;2024-01-25T03:12:31;2.80;90.50
24426;DHT22;12611;44.446;26.000;2024-01-25T03:14:59;2.70;90.50
24426;DHT22;12611;44.446;26.000;2024-01-25T03:17:29;2.70;90.60
24426;DHT22;12611;44.446;26.000;2024-01-25T03:19:57;2.70;90.70
24426;DHT22;12611;44.446;26.000;2024-01-25T03:22:26;2.80;90.70
24426;DHT22;12611;44.446;26.000;2024-01-25T03:24:55;2.80;90.80
24426;DHT22;12611;44.446;26.000;2024-01-25T03:27:23;2.80;90.70
24426;DHT22;12611;44.446;26.000;2024-01-25T03:29:53;2.90;90.80
24426;DHT22;12611;44.446;26.000;2024-01-25T03:32:22;2.90;90.80
24426;DHT22;12611;44.446;26.000;2024-01-25T03:35:05;3.00;90.80
24426;DHT22;12611;44.446;26.000;2024-01-25T03:37:34;3.00;90.70
24426;DHT22;12611;44.446;26.000;2024-01-25T03:40:03;3.10;90.70
24426;DHT22;12611;44.446;26.000;2024-01-25T03:42:32;3.10;90.60
24426;DHT22;12611;44.446;26.000;2024-01-25T03:45:02;3.10;90.60
24426;DHT22;12611;44.446;26.000;2024-01-25T03:47:30;3.20;90.50
24426;DHT22;12611;44.446;26.000;2024-01-25T03:49:59;3.20;90.40
24426;DHT22;12611;44.446;26.000;2024-01-25T03:52:28;3.20;90.30
24426;DHT22;12611;44.446;26.000;2024-01-25T03:55:24;3.20;90.10
24426;DHT22;12611;44.446;26.000;2024-01-25T03:58:06;3.20;90.10
24426;DHT22;12611;44.446;26.000;2024-01-25T04:00:50;3.20;90.10
24426;DHT22;12611;44.446;26.000;2024-01-25T04:03:19;3.20;90.10
24426;DHT22;12611;44.446;26.000;2024-01-25T04:05:48;3.20;90.00
24426;DHT22;12611;44.446;26.000;2024-01-25T04:08:16;3.20;90.10
24426;DHT22;12611;44.446;26.000;2024-01-25T04:10:45;3.20;90.10
24426;DHT22;12611;44.446;26.000;2024-01-25T04:13:13;3.30;90.10
24426;DHT22;12611;44.446;26.000;2024-01-25T04:15:42;3.30;90.10
24426;DHT22;12611;44.446;26.000;2024-01-25T04:18:12;3.30;90.00
24426;DHT22;12611;44.446;26.000;2024-01-25T04:20:41;3.30;89.90
24426;DHT22;12611;44.446;26.000;2024-01-25T04:23:10;3.30;89.80
24426;DHT22;12611;44.446;26.000;2024-01-25T04:25:38;3.30;89.70
24426;DHT22;12611;44.446;26.000;2024-01-25T04:28:07;3.40;89.50
24426;DHT22;12611;44.446;26.000;2024-01-25T04:30:35;3.40;89.30
24426;DHT22;12611;44.446;26.000;2024-01-25T04:33:04;3.40;89.10
24426;DHT22;12611;44.446;26.000;2024-01-25T04:35:35;3.30;88.80
24426;DHT22;12611;44.446;26.000;2024-01-25T04:38:03;3.40;88.80
24426;DHT22;12611;44.446;26.000;2024-01-25T04:40:32;3.30;88.50
24426;DHT22;12611;44.446;26.000;2024-01-25T04:43:00;3.30;88.60
24426;DHT22;12611;44.446;26.000;2024-01-25T04:45:29;3.30;88.50
24426;DHT22;12611;44.446;26.000;2024-01-25T04:47:57;3.30;87.80
24426;DHT22;12611;44.446;26.000;2024-01-25T04:50:26;3.30;87.90
24426;DHT22;12611;44.446;26.000;2024-01-25T04:52:57;3.20;87.80
24426;DHT22;12611;44.446;26.000;2024-01-25T04:55:27;3.20;87.30
24426;DHT22;12611;44.446;26.000;2024-01-25T04:57:56;3.20;87.40
24426;DHT22;12611;44.446;26.000;2024-01-25T05:00:24;3.10;87.10
24426;DHT22;12611;44.446;26.000;2024-01-25T05:03:02;3.10;87.20
24426;DHT22;12611;44.446;26.000;2024-01-25T05:05:31;3.00;87.20
24426;DHT22;12611;44.446;26.000;2024-01-25T05:08:14;3.00;87.20
24426;DHT22;12611;44.446;26.000;2024-01-25T05:10:57;3.00;87.30
24426;DHT22;12611;44.446;26.000;2024-01-25T05:13:25;2.90;87.20
24426;DHT22;12611;44.446;26.000;2024-01-25T05:15:54;2.90;87.20
24426;DHT22;12611;44.446;26.000;2024-01-25T05:18:23;2.90;87.20
24426;DHT22;12611;44.446;26.000;2024-01-25T05:20:52;2.90;87.00
24426;DHT22;12611;44.446;26.000;2024-01-25T05:23:23;2.90;87.10
24426;DHT22;12611;44.446;26.000;2024-01-25T05:25:52;2.80;87.10
24426;DHT22;12611;44.446;26.000;2024-01-25T05:28:21;2.80;87.30
24426;DHT22;12611;44.446;26.000;2024-01-25T05:30:51;2.80;87.40
24426;DHT22;12611;44.446;26.000;2024-01-25T05:33:19;2.80;87.50
24426;DHT22;12611;44.446;26.000;2024-01-25T05:35:48;2.80;87.00
24426;DHT22;12611;44.446;26.000;2024-01-25T05:38:17;2.80;87.00
24426;DHT22;12611;44.446;26.000;2024-01-25T05:40:47;2.80;87.10
24426;DHT22;12611;44.446;26.000;2024-01-25T05:43:16;2.80;87.40
24426;DHT22;12611;44.446;26.000;2024-01-25T05:45:45;2.80;87.50
24426;DHT22;12611;44.446;26.000;2024-01-25T05:48:14;2.80;87.50
24426;DHT22;12611;44.446;26.000;2024-01-25T05:50:43;2.80;87.60
24426;DHT22;12611;44.446;26.000;2024-01-25T05:53:25;2.80;87.60
24426;DHT22;12611;44.446;26.000;2024-01-25T05:55:55;2.80;87.50
24426;DHT22;12611;44.446;26.000;2024-01-25T05:58:23;2.80;87.50
24426;DHT22;12611;44.446;26.000;2024-01-25T06:01:06;2.80;87.50
24426;DHT22;12611;44.446;26.000;2024-01-25T06:03:49;2.80;87.70
24426;DHT22;12611;44.446;26.000;2024-01-25T06:06:18;2.80;87.80
24426;DHT22;12611;44.446;26.000;2024-01-25T06:08:47;2.80;87.80
24426;DHT22;12611;44.446;26.000;2024-01-25T06:11:29;2.80;87.70
24426;DHT22;12611;44.446;26.000;2024-01-25T06:13:58;2.90;88.00
24426;DHT22;12611;44.446;26.000;2024-01-25T06:16:26;2.90;87.90
24426;DHT22;12611;44.446;26.000;2024-01-25T06:18:55;2.90;87.90
24426;DHT22;12611;44.446;26.000;2024-01-25T06:21:24;2.90;88.00
24426;DHT22;12611;44.446;26.000;2024-01-25T06:24:01;2.90;88.00
24426;DHT22;12611;44.446;26.000;2024-01-25T06:26:31;2.90;88.30
24426;DHT22;12611;44.446;26.000;2024-01-25T06:29:00;2.90;88.30
24426;DHT22;12611;44.446;26.000;2024-01-25T06:31:42;2.90;88.50
24426;DHT22;12611;44.446;26.000;2024-01-25T06:34:11;2.90;88.60
24426;DHT22;12611;44.446;26.000;2024-01-25T06:36:40;2.90;88.60
24426;DHT22;12611;44.446;26.000;2024-01-25T06:39:09;2.90;88.80
24426;DHT22;12611;44.446;26.000;2024-01-25T06:41:52;3.00;88.90
24426;DHT22;12611;44.446;26.000;2024-01-25T06:44:21;3.00;88.90
24426;DHT22;12611;44.446;26.000;2024-01-25T06:46:49;3.00;88.90
24426;DHT22;12611;44.446;26.000;2024-01-25T06:49:18;3.10;89.00
24426;DHT22;12611;44.446;26.000;2024-01-25T06:52:16;3.10;89.10
24426;DHT22;12611;44.446;26.000;2024-01-25T06:54:44;3.10;89.10
24426;DHT22;12611;44.446;26.000;2024-01-25T06:57:29;3.20;89.20
24426;DHT22;12611;44.446;26.000;2024-01-25T06:59:58;3.20;89.20
24426;DHT22;12611;44.446;26.000;2024-01-25T07:02:54;3.30;89.20
24426;DHT22;12611;44.446;26.000;2024-01-25T07:05:23;3.40;89.20
24426;DHT22;12611;44.446;26.000;2024-01-25T07:07:52;3.50;89.30
24426;DHT22;12611;44.446;26.000;2024-01-25T07:10:20;3.50;88.90
24426;DHT22;12611;44.446;26.000;2024-01-25T07:13:04;3.50;88.90
24426;DHT22;12611;44.446;26.000;2024-01-25T07:15:33;3.60;89.10
24426;DHT22;12611;44.446;26.000;2024-01-25T07:18:02;3.60;89.20
24426;DHT22;12611;44.446;26.000;2024-01-25T07:20:31;3.70;89.40
24426;DHT22;12611;44.446;26.000;2024-01-25T07:23:00;3.80;89.50
24426;DHT22;12611;44.446;26.000;2024-01-25T07:25:28;3.90;89.70
24426;DHT22;12611;44.446;26.000;2024-01-25T07:27:57;3.90;89.70
24426;DHT22;12611;44.446;26.000;2024-01-25T07:30:27;4.00;89.70
24426;DHT22;12611;44.446;26.000;2024-01-25T07:32:55;4.00;89.70
24426;DHT22;12611;44.446;26.000;2024-01-25T07:35:24;4.10;89.90
24426;DHT22;12611;44.446;26.000;2024-01-25T07:38:20;4.10;89.70
24426;DHT22;12611;44.446;26.000;2024-01-25T07:40:48;4.10;89.40
24426;DHT22;12611;44.446;26.000;2024-01-25T07:43:30;4.20;89.60
24426;DHT22;12611;44.446;26.000;2024-01-25T07:46:16;4.20;89.60
24426;DHT22;12611;44.446;26.000;2024-01-25T07:48:58;4.30;89.60
24426;DHT22;12611;44.446;26.000;2024-01-25T07:51:40;4.40;89.60
24426;DHT22;12611;44.446;26.000;2024-01-25T07:54:10;4.40;89.50
24426;DHT22;12611;44.446;26.000;2024-01-25T07:56:38;4.50;89.50
24426;DHT22;12611;44.446;26.000;2024-01-25T07:59:20;4.60;89.70
24426;DHT22;12611;44.446;26.000;2024-01-25T08:05:03;4.70;89.40
24426;DHT22;12611;44.446;26.000;2024-01-25T08:07:31;4.80;89.40
24426;DHT22;12611;44.446;26.000;2024-01-25T08:10:27;4.80;89.40
24426;DHT22;12611;44.446;26.000;2024-01-25T08:13:10;4.90;89.50
24426;DHT22;12611;44.446;26.000;2024-01-25T08:15:38;4.90;90.00
24426;DHT22;12611;44.446;26.000;2024-01-25T08:18:20;4.90;90.10
24426;DHT22;12611;44.446;26.000;2024-01-25T08:21:05;5.00;90.10
24426;DHT22;12611;44.446;26.000;2024-01-25T08:23:33;5.10;90.30
24426;DHT22;12611;44.446;26.000;2024-01-25T08:26:16;5.10;90.10
24426;DHT22;12611;44.446;26.000;2024-01-25T08:28:58;5.20;90.20
24426;DHT22;12611;44.446;26.000;2024-01-25T08:31:27;5.40;90.40
24426;DHT22;12611;44.446;26.000;2024-01-25T08:33:56;5.50;90.70
24426;DHT22;12611;44.446;26.000;2024-01-25T08:39:52;5.60;90.20
24426;DHT22;12611;44.446;26.000;2024-01-25T08:42:34;5.70;90.20
24426;DHT22;12611;44.446;26.000;2024-01-25T08:45:04;5.90;90.20
24426;DHT22;12611;44.446;26.000;2024-01-25T08:47:46;5.90;90.00
24426;DHT22;12611;44.446;26.000;2024-01-25T08:50:16;6.00;90.00
24426;DHT22;12611;44.446;26.000;2024-01-25T08:52:59;6.20;90.00
24426;DHT22;12611;44.446;26.000;2024-01-25T08:58:44;6.50;89.40
24426;DHT22;12611;44.446;26.000;2024-01-25T09:01:40;6.50;89.20
24426;DHT22;12611;44.446;26.000;2024-01-25T09:04:09;6.60;89.50
24426;DHT22;12611;44.446;26.000;2024-01-25T09:06:38;6.60;89.20
24426;DHT22;12611;44.446;26.000;2024-01-25T09:09:06;6.70;89.10
24426;DHT22;12611;44.446;26.000;2024-01-25T09:11:35;6.70;89.00
24426;DHT22;12611;44.446;26.000;2024-01-25T09:14:33;6.80;89.00
24426;DHT22;12611;44.446;26.000;2024-01-25T09:17:03;6.90;88.90
24426;DHT22;12611;44.446;26.000;2024-01-25T09:19:32;6.90;88.60
24426;DHT22;12611;44.446;26.000;2024-01-25T09:22:14;6.90;88.30
24426;DHT22;12611;44.446;26.000;2024-01-25T09:24:44;6.90;88.40
24426;DHT22;12611;44.446;26.000;2024-01-25T09:27:13;6.90;88.30
24426;DHT22;12611;44.446;26.000;2024-01-25T09:30:12;7.00;88.30
24426;DHT22;12611;44.446;26.000;2024-01-25T09:32:40;7.10;88.50
24426;DHT22;12611;44.446;26.000;2024-01-25T09:35:09;7.10;88.30
24426;DHT22;12611;44.446;26.000;2024-01-25T09:37:38;7.20;88.30
24426;DHT22;12611;44.446;26.000;2024-01-25T09:40:07;7.20;87.90
24426;DHT22;12611;44.446;26.000;2024-01-25T09:42:37;7.30;88.20
24426;DHT22;12611;44.446;26.000;2024-01-25T09:45:07;7.40;88.40
24426;DHT22;12611;44.446;26.000;2024-01-25T09:47:51;7.60;88.40
24426;DHT22;12611;44.446;26.000;2024-01-25T09:50:20;7.70;88.10
24426;DHT22;12611;44.446;26.000;2024-01-25T09:53:03;7.80;87.70
24426;DHT22;12611;44.446;26.000;2024-01-25T09:55:35;7.90;87.70
24426;DHT22;12611;44.446;26.000;2024-01-25T09:58:38;8.00;87.20
24426;DHT22;12611;44.446;26.000;2024-01-25T10:01:11;8.10;86.90
24426;DHT22;12611;44.446;26.000;2024-01-25T10:03:44;8.10;86.60
24426;DHT22;12611;44.446;26.000;2024-01-25T10:06:13;8.20;86.60
24426;DHT22;12611;44.446;26.000;2024-01-25T10:08:42;8.30;85.80
24426;DHT22;12611;44.446;26.000;2024-01-25T10:11:11;8.30;85.70
24426;DHT22;12611;44.446;26.000;2024-01-25T10:13:43;8.40;85.70
24426;DHT22;12611;44.446;26.000;2024-01-25T10:16:12;8.40;84.80
24426;DHT22;12611;44.446;26.000;2024-01-25T10:19:11;8.40;84.40
24426;DHT22;12611;44.446;26.000;2024-01-25T10:21:41;8.40;84.50
24426;DHT22;12611;44.446;26.000;2024-01-25T10:24:11;8.60;84.70
24426;DHT22;12611;44.446;26.000;2024-01-25T10:26:41;8.60;84.10
24426;DHT22;12611;44.446;26.000;2024-01-25T10:29:25;8.60;83.60
24426;DHT22;12611;44.446;26.000;2024-01-25T10:31:54;8.70;83.60
24426;DHT22;12611;44.446;26.000;2024-01-25T10:34:25;8.70;83.40
24426;DHT22;12611;44.446;26.000;2024-01-25T10:37:08;8.70;83.20
24426;DHT22;12611;44.446;26.000;2024-01-25T10:39:50;8.60;83.30
24426;DHT22;12611;44.446;26.000;2024-01-25T10:42:21;8.60;83.50
24426;DHT22;12611;44.446;26.000;2024-01-25T10:44:50;8.60;83.50
24426;DHT22;12611;44.446;26.000;2024-01-25T10:47:19;8.50;83.30
24426;DHT22;12611;44.446;26.000;2024-01-25T10:50:03;8.50;83.50
24426;DHT22;12611;44.446;26.000;2024-01-25T10:52:36;8.50;83.60
24426;DHT22;12611;44.446;26.000;2024-01-25T10:55:19;8.60;83.70
24426;DHT22;12611;44.446;26.000;2024-01-25T10:58:02;8.60;83.30
24426;DHT22;12611;44.446;26.000;2024-01-25T11:00:31;8.60;83.50
24426;DHT22;12611;44.446;26.000;2024-01-25T11:03:14;8.60;83.60
24426;DHT22;12611;44.446;26.000;2024-01-25T11:05:44;8.70;84.00
24426;DHT22;12611;44.446;26.000;2024-01-25T11:08:27;8.70;83.90
24426;DHT22;12611;44.446;26.000;2024-01-25T11:10:56;8.70;84.00
24426;DHT22;12611;44.446;26.000;2024-01-25T11:13:39;8.70;83.90
24426;DHT22;12611;44.446;26.000;2024-01-25T11:16:13;8.80;84.00
24426;DHT22;12611;44.446;26.000;2024-01-25T11:18:48;8.80;84.10
24426;DHT22;12611;44.446;26.000;2024-01-25T11:21:37;8.90;83.80
24426;DHT22;12611;44.446;26.000;2024-01-25T11:24:12;9.00;83.90
24426;DHT22;12611;44.446;26.000;2024-01-25T11:26:43;9.10;83.70
24426;DHT22;12611;44.446;26.000;2024-01-25T11:29:13;9.20;83.90
24426;DHT22;12611;44.446;26.000;2024-01-25T11:31:43;9.40;84.00
24426;DHT22;12611;44.446;26.000;2024-01-25T11:34:13;9.50;83.10
24426;DHT22;12611;44.446;26.000;2024-01-25T11:36:45;9.60;83.00
24426;DHT22;12611;44.446;26.000;2024-01-25T11:39:14;9.70;82.20
24426;DHT22;12611;44.446;26.000;2024-01-25T11:41:44;9.80;81.90
24426;DHT22;12611;44.446;26.000;2024-01-25T11:44:13;9.90;80.90
24426;DHT22;12611;44.446;26.000;2024-01-25T11:46:42;10.00;81.40
24426;DHT22;12611;44.446;26.000;2024-01-25T11:49:10;10.10;81.40
24426;DHT22;12611;44.446;26.000;2024-01-25T11:51:39;10.20;81.30
24426;DHT22;12611;44.446;26.000;2024-01-25T11:54:11;10.30;80.70
24426;DHT22;12611;44.446;26.000;2024-01-25T11:56:53;10.50;81.00
24426;DHT22;12611;44.446;26.000;2024-01-25T11:59:22;10.60;79.80
24426;DHT22;12611;44.446;26.000;2024-01-25T12:01:51;10.60;79.80
24426;DHT22;12611;44.446;26.000;2024-01-25T12:04:35;10.70;79.70
24426;DHT22;12611;44.446;26.000;2024-01-25T12:07:04;10.80;79.80
24426;DHT22;12611;44.446;26.000;2024-01-25T12:09:58;11.00;80.40
24426;DHT22;12611;44.446;26.000;2024-01-25T12:12:27;11.10;80.60
24426;DHT22;12611;44.446;26.000;2024-01-25T12:14:59;11.20;79.80
24426;DHT22;12611;44.446;26.000;2024-01-25T12:17:55;11.30;80.20
24426;DHT22;12611;44.446;26.000;2024-01-25T12:20:23;11.40;79.20
24426;DHT22;12611;44.446;26.000;2024-01-25T12:23:06;11.50;79.00
24426;DHT22;12611;44.446;26.000;2024-01-25T12:25:40;11.60;78.80
24426;DHT22;12611;44.446;26.000;2024-01-25T12:28:37;11.70;78.10
24426;DHT22;12611;44.446;26.000;2024-01-25T12:31:19;11.80;76.90
24426;DHT22;12611;44.446;26.000;2024-01-25T12:33:48;11.80;75.10
24426;DHT22;12611;44.446;26.000;2024-01-25T12:36:17;11.90;75.40
24426;DHT22;12611;44.446;26.000;2024-01-25T12:38:59;12.00;75.10
24426;DHT22;12611;44.446;26.000;2024-01-25T12:41:30;12.00;75.20
24426;DHT22;12611;44.446;26.000;2024-01-25T12:43:59;12.00;74.70
24426;DHT22;12611;44.446;26.000;2024-01-25T12:46:28;12.00;74.70
24426;DHT22;12611;44.446;26.000;2024-01-25T12:48:57;12.00;73.60
24426;DHT22;12611;44.446;26.000;2024-01-25T12:51:53;12.00;72.80
24426;DHT22;12611;44.446;26.000;2024-01-25T12:54:22;12.00;73.00
24426;DHT22;12611;44.446;26.000;2024-01-25T12:56:52;12.10;74.20
24426;DHT22;12611;44.446;26.000;2024-01-25T12:59:21;12.20;74.40
24426;DHT22;12611;44.446;26.000;2024-01-25T13:01:50;12.30;75.60
24426;DHT22;12611;44.446;26.000;2024-01-25T13:04:19;12.40;73.60
24426;DHT22;12611;44.446;26.000;2024-01-25T13:06:52;12.40;72.70
24426;DHT22;12611;44.446;26.000;2024-01-25T13:09:21;12.50;72.30
24426;DHT22;12611;44.446;26.000;2024-01-25T13:11:51;12.70;72.40
24426;DHT22;12611;44.446;26.000;2024-01-25T13:14:20;12.70;71.90
24426;DHT22;12611;44.446;26.000;2024-01-25T13:16:51;12.80;72.20
24426;DHT22;12611;44.446;26.000;2024-01-25T13:19:19;12.90;72.60
24426;DHT22;12611;44.446;26.000;2024-01-25T13:21:49;13.20;72.10
24426;DHT22;12611;44.446;26.000;2024-01-25T13:24:19;13.50;72.20
24426;DHT22;12611;44.446;26.000;2024-01-25T13:26:48;13.70;72.20
24426;DHT22;12611;44.446;26.000;2024-01-25T13:29:18;14.00;74.10
24426;DHT22;12611;44.446;26.000;2024-01-25T13:31:47;14.50;74.00
24426;DHT22;12611;44.446;26.000;2024-01-25T13:34:15;14.90;72.70
24426;DHT22;12611;44.446;26.000;2024-01-25T13:36:44;15.20;71.30
24426;DHT22;12611;44.446;26.000;2024-01-25T13:39:12;15.50;67.00
24426;DHT22;12611;44.446;26.000;2024-01-25T13:41:41;16.30;67.10
24426;DHT22;12611;44.446;26.000;2024-01-25T13:44:09;17.50;62.90
24426;DHT22;12611;44.446;26.000;2024-01-25T13:46:39;18.80;61.40
24426;DHT22;12611;44.446;26.000;2024-01-25T13:49:08;21.10;55.70
24426;DHT22;12611;44.446;26.000;2024-01-25T13:51:36;21.70;51.10
24426;DHT22;12611;44.446;26.000;2024-01-25T13:54:05;23.80;48.70
24426;DHT22;12611;44.446;26.000;2024-01-25T13:56:33;24.50;46.90
24426;DHT22;12611;44.446;26.000;2024-01-25T13:59:02;25.60;44.20
24426;DHT22;12611;44.446;26.000;2024-01-25T14:01:30;27.30;42.50
24426;DHT22;12611;44.446;26.000;2024-01-25T14:04:00;27.80;40.60
24426;DHT22;12611;44.446;26.000;2024-01-25T14:06:29;25.40;42.10
24426;DHT22;12611;44.446;26.000;2024-01-25T14:08:58;23.70;43.20
24426;DHT22;12611;44.446;26.000;2024-01-25T14:11:27;22.20;45.20
24426;DHT22;12611;44.446;26.000;2024-01-25T14:13:55;21.00;47.60
24426;DHT22;12611;44.446;26.000;2024-01-25T14:16:24;19.90;48.30
24426;DHT22;12611;44.446;26.000;2024-01-25T14:18:52;19.10;49.80
24426;DHT22;12611;44.446;26.000;2024-01-25T14:21:22;19.40;50.40
24426;DHT22;12611;44.446;26.000;2024-01-25T14:24:05;18.70;50.30
24426;DHT22;12611;44.446;26.000;2024-01-25T14:26:33;17.80;51.40
24426;DHT22;12611;44.446;26.000;2024-01-25T14:29:16;17.60;52.50
24426;DHT22;12611;44.446;26.000;2024-01-25T14:31:58;18.30;51.80
24426;DHT22;12611;44.446;26.000;2024-01-25T14:34:27;17.80;52.40
24426;DHT22;12611;44.446;26.000;2024-01-25T14:37:10;17.60;53.60
24426;DHT22;12611;44.446;26.000;2024-01-25T14:39:39;17.50;53.80
24426;DHT22;12611;44.446;26.000;2024-01-25T14:42:18;17.20;54.40
24426;DHT22;12611;44.446;26.000;2024-01-25T14:45:00;16.80;54.90
24426;DHT22;12611;44.446;26.000;2024-01-25T14:47:29;16.40;55.30
24426;DHT22;12611;44.446;26.000;2024-01-25T14:49:58;16.00;56.00
24426;DHT22;12611;44.446;26.000;2024-01-25T14:52:27;15.60;56.60
24426;DHT22;12611;44.446;26.000;2024-01-25T14:55:00;15.30;57.20
24426;DHT22;12611;44.446;26.000;2024-01-25T14:57:43;15.00;57.70
24426;DHT22;12611;44.446;26.000;2024-01-25T15:00:13;14.70;58.20
24426;DHT22;12611;44.446;26.000;2024-01-25T15:02:46;14.40;59.30
24426;DHT22;12611;44.446;26.000;2024-01-25T15:05:42;14.20;59.10
24426;DHT22;12611;44.446;26.000;2024-01-25T15:08:26;13.90;59.60
24426;DHT22;12611;44.446;26.000;2024-01-25T15:11:08;13.70;60.00
24426;DHT22;12611;44.446;26.000;2024-01-25T15:13:37;13.50;60.50
24426;DHT22;12611;44.446;26.000;2024-01-25T15:16:05;13.30;60.90
24426;DHT22;12611;44.446;26.000;2024-01-25T15:18:35;13.10;61.20
24426;DHT22;12611;44.446;26.000;2024-01-25T15:21:04;12.90;61.60
24426;DHT22;12611;44.446;26.000;2024-01-25T15:23:34;12.70;62.00
24426;DHT22;12611;44.446;26.000;2024-01-25T15:26:03;12.60;62.60
24426;DHT22;12611;44.446;26.000;2024-01-25T15:28:32;12.40;63.10
24426;DHT22;12611;44.446;26.000;2024-01-25T15:31:01;12.20;63.90
24426;DHT22;12611;44.446;26.000;2024-01-25T15:33:30;12.10;64.40
24426;DHT22;12611;44.446;26.000;2024-01-25T15:35:59;12.00;65.30
24426;DHT22;12611;44.446;26.000;2024-01-25T15:38:27;11.90;65.50
24426;DHT22;12611;44.446;26.000;2024-01-25T15:40:59;11.80;66.10
24426;DHT22;12611;44.446;26.000;2024-01-25T15:43:28;11.70;66.10
24426;DHT22;12611;44.446;26.000;2024-01-25T15:45:57;11.50;66.10
24426;DHT22;12611;44.446;26.000;2024-01-25T15:48:25;11.40;66.30
24426;DHT22;12611;44.446;26.000;2024-01-25T15:50:54;11.30;66.90
24426;DHT22;12611;44.446;26.000;2024-01-25T15:53:22;11.20;67.40
24426;DHT22;12611;44.446;26.000;2024-01-25T15:55:51;11.00;67.60
24426;DHT22;12611;44.446;26.000;2024-01-25T15:58:21;10.90;68.20
24426;DHT22;12611;44.446;26.000;2024-01-25T16:00:49;10.80;68.20
24426;DHT22;12611;44.446;26.000;2024-01-25T16:03:18;10.70;68.30
24426;DHT22;12611;44.446;26.000;2024-01-25T16:05:47;10.60;68.50
24426;DHT22;12611;44.446;26.000;2024-01-25T16:08:15;10.60;68.90
24426;DHT22;12611;44.446;26.000;2024-01-25T16:10:44;10.50;69.10